Latest Weather Observations for Esperance

IDW60801

Issued at 8:33 am WST Wednesday 23 August 2017 (issued every 30 minutes, with the page automatically refreshed every 10 minutes)

About weather observations | Map of weather stations | Latest weather observations for WA | Other Formats
Station Details ID: 009789 Name: ESPERANCE Lat: -33.83 Lon: 121.89 Height: 25.0 m
Data from the previous 72 hours. | See also: Recent months at Esperance
Date/Time
WST
Temp
°C
App
Temp
°C
Dew
Point
°C
Rel
Hum
%
Delta-T
°C
Wind Press
QNH
hPa
Press
MSL
hPa
Rain since
9am
mm
Dir  Spd
km/h
Gust
km/h
Spd
kts
Gust
kts
23/08:00am 10.5 9.0 8.4 87 1.0 NW 6 7 3 4 1028.5 1028.5 0.4
23/07:30am 9.4 7.5 7.7 89 0.8 NW 7 9 4 5 1028.0 1028.0 0.4
23/07:00am 9.2 7.3 7.5 89 0.8 NW 7 9 4 5 1027.5 1027.5 0.4
23/06:30am 9.1 7.3 7.2 88 0.9 N 6 7 3 4 1027.2 1027.2 0.4
23/06:00am 8.9 6.9 7.2 89 0.8 N 7 9 4 5 1026.8 1026.8 0.4
23/05:30am 8.8 6.8 7.1 89 0.8 N 7 9 4 5 1026.5 1026.5 0.4
23/05:00am 8.6 6.1 6.6 87 0.9 N 9 11 5 6 1026.2 1026.2 0.4
23/04:30am 8.4 5.9 6.4 87 0.9 N 9 11 5 6 1025.9 1025.9 0.4
23/04:00am 9.6 8.1 7.0 84 1.2 S 4 9 2 5 1025.6 1025.6 0.4
23/03:30am 11.6 8.6 6.0 68 2.6 S 11 13 6 7 1025.4 1025.4 0.4
23/03:00am 11.9 8.6 6.4 69 2.6 SSE 13 20 7 11 1025.4 1025.4 0.4
23/02:30am 11.7 8.7 5.9 67 2.7 S 11 15 6 8 1025.4 1025.4 0.4
23/02:00am 11.9 8.9 5.9 66 2.8 S 11 15 6 8 1025.6 1025.6 0.4
23/01:30am 12.0 8.8 5.2 63 3.1 S 11 15 6 8 1025.6 1025.6 0.4
23/01:00am 12.0 8.4 5.2 63 3.1 SSE 13 17 7 9 1025.5 1025.5 0.4
23/12:30am 12.4 8.6 5.7 63 3.1 S 15 20 8 11 1025.5 1025.5 0.4
23/12:00am 12.3 8.6 6.4 67 2.8 S 15 20 8 11 1025.4 1025.4 0.4
 
Date/Time
WST
Temp
°C
App
Temp
°C
Dew
Point
°C
Rel
Hum
%
Delta-T
°C
Wind Press
QNH
hPa
Press
MSL
hPa
Rain since
9am
mm
Dir  Spd
km/h
Gust
km/h
Spd
kts
Gust
kts
22/11:30pm 12.5 9.4 7.3 70 2.5 S 13 17 7 9 1025.2 1025.2 0.4
22/11:00pm 12.5 9.7 8.7 77 1.9 S 13 17 7 9 1025.1 1025.1 0.4
22/10:30pm 13.2 10.6 9.5 78 1.9 SSW 13 20 7 11 1024.9 1024.9 0.4
22/10:00pm 13.3 11.4 10.4 82 1.5 S 11 17 6 9 1024.7 1024.7 0.4
22/09:30pm 13.5 11.5 11.4 87 1.1 SSE 13 17 7 9 1024.5 1024.5 0.4
22/09:00pm 13.4 10.5 10.9 85 1.3 S 17 24 9 13 1024.2 1024.2 0.4
22/08:33pm 13.0 10.0 11.9 93 0.6 S 19 26 10 14 1024.0 1024.0 0.4
22/08:30pm 13.1 10.1 12.0 93 0.6 S 19 26 10 14 1024.0 1024.0 0.4
22/08:28pm 13.1 10.5 12.0 93 0.6 S 17 26 9 14 1024.0 1024.0 0.4
22/08:17pm 12.6 11.8 11.7 94 0.5 SW 7 17 4 9 1023.8 1023.8 0.4
22/08:15pm 12.5 11.7 11.6 94 0.5 WSW 7 11 4 6 1023.8 1023.8 0.4
22/08:00pm 12.0 11.0 11.0 94 0.5 NW 7 7 4 4 1023.6 1023.6 0.2
22/07:30pm 12.0 11.2 11.2 95 0.4 NW 6 7 3 4 1023.4 1023.4 0.2
22/07:00pm 12.6 11.8 11.1 91 0.8 S 6 7 3 4 1023.0 1023.0 0.2
22/06:54pm 12.5 11.6 11.2 92 0.7 S 7 7 4 4 1022.9 1022.9 0.2
22/06:37pm 12.6 10.8 10.7 88 1.0 SW 11 19 6 10 1022.8 1022.8 0.2
22/06:30pm 13.1 11.8 9.1 77 2.0 W 6 9 3 5 1022.7 1022.7 0.0
22/06:00pm 13.5 11.9 8.7 73 2.4 W 7 9 4 5 1022.1 1022.1 0.0
22/05:30pm 14.0 12.5 9.1 72 2.5 WSW 7 11 4 6 1021.8 1021.8 0.0
22/05:00pm 15.3 13.3 8.6 64 3.4 WSW 9 17 5 9 1021.6 1021.6 0.0
22/04:30pm 15.9 12.9 6.2 52 4.7 WSW 11 17 6 9 1021.4 1021.4 0.0
22/04:00pm 16.1 12.5 5.1 48 5.2 WSW 13 20 7 11 1021.2 1021.2 0.0
22/03:30pm 16.6 12.3 5.3 47 5.4 WSW 17 22 9 12 1020.8 1020.8 0.0
22/03:00pm 16.5 11.4 3.1 40 6.1 WSW 19 26 10 14 1020.5 1020.5 0.0
22/02:30pm 16.8 11.9 4.2 43 5.9 WSW 19 32 10 17 1020.2 1020.2 0.0
22/02:00pm 17.5 13.5 6.6 48 5.4 WSW 17 28 9 15 1020.1 1020.1 0.0
22/01:30pm 16.6 12.0 5.8 49 5.2 WSW 19 28 10 15 1020.0 1020.0 0.0
22/01:00pm 16.7 12.2 6.2 50 5.1 WSW 19 26 10 14 1020.1 1020.1 0.0
22/12:30pm 16.2 11.7 6.3 52 4.8 WSW 19 24 10 13 1020.2 1020.2 0.0
22/12:00pm 16.8 12.8 4.7 44 5.7 W 15 26 8 14 1020.4 1020.4 0.0
22/11:30am 16.7 13.5 7.0 52 4.8 NW 13 19 7 10 1020.5 1020.5 0.0
22/11:00am 15.7 12.6 7.4 57 4.1 NW 13 17 7 9 1020.9 1020.9 0.0
22/10:30am 15.3 11.9 7.6 60 3.8 NW 15 19 8 10 1021.0 1021.0 0.0
22/10:00am 13.7 10.2 7.3 65 3.1 NW 15 20 8 11 1021.1 1021.1 0.0
22/09:30am 13.5 9.5 6.6 63 3.3 WNW 17 24 9 13 1021.0 1021.0 0.0
22/09:00am 13.1 9.7 7.6 69 2.7 NW 15 20 8 11 1020.9 1020.9 0.0
22/08:30am 12.1 9.1 7.6 74 2.2 NW 13 17 7 9 1020.9 1020.9 0.0
22/08:00am 11.2 7.5 6.5 73 2.2 NW 15 19 8 10 1020.8 1020.8 0.0
22/07:30am 10.2 6.9 6.6 78 1.7 NNW 13 17 7 9 1020.6 1020.6 0.0
22/07:00am 9.2 5.8 5.9 80 1.5 NNW 13 19 7 10 1020.2 1020.2 0.0
22/06:30am 8.9 6.2 5.8 81 1.4 N 9 17 5 9 1019.8 1019.8 0.0
22/06:00am 8.6 6.0 6.2 85 1.1 NNW 9 13 5 7 1019.6 1019.6 0.0
22/05:30am 8.1 4.4 6.3 88 0.8 NNW 15 17 8 9 1019.4 1019.4 0.0
22/05:00am 7.8 5.6 6.3 90 0.7 NNW 7 9 4 5 1019.4 1019.4 0.0
22/04:30am 8.0 5.1 6.7 91 0.6 NNW 11 13 6 7 1019.4 1019.4 0.0
22/04:00am 7.8 5.8 7.2 96 0.3 N 7 11 4 6 1019.3 1019.3 0.0
22/03:30am 7.5 5.1 7.1 97 0.2 N 9 11 5 6 1019.3 1019.3 0.0
22/03:00am 7.8 5.4 7.2 96 0.3 N 9 11 5 6 1019.3 1019.3 0.0
22/02:30am 8.1 5.7 7.2 94 0.4 N 9 11 5 6 1019.4 1019.4 0.0
22/02:00am 8.2 5.6 7.6 96 0.3 N 11 13 6 7 1019.5 1019.5 0.0
22/01:30am 8.0 5.7 7.4 96 0.3 N 9 11 5 6 1019.8 1019.8 0.0
22/01:00am 8.2 5.8 7.1 93 0.5 N 9 11 5 6 1019.9 1019.9 0.0
22/12:30am 8.2 5.6 7.6 96 0.3 N 11 11 6 6 1020.0 1020.0 0.0
22/12:00am 7.9 5.5 7.0 94 0.4 N 9 11 5 6 1020.1 1020.1 0.0
 
Date/Time
WST
Temp
°C
App
Temp
°C
Dew
Point
°C
Rel
Hum
%
Delta-T
°C
Wind Press
QNH
hPa
Press
MSL
hPa
Rain since
9am
mm
Dir  Spd
km/h
Gust
km/h
Spd
kts
Gust
kts
21/11:30pm 8.2 5.9 7.3 94 0.4 N 9 11 5 6 1020.3 1020.3 0.0
21/11:00pm 8.3 6.4 7.4 94 0.4 N 7 9 4 5 1020.3 1020.3 0.0
21/10:30pm 8.6 6.3 7.5 93 0.5 N 9 11 5 6 1020.3 1020.3 0.0
21/10:00pm 9.2 7.3 7.7 90 0.7 NNW 7 7 4 4 1020.3 1020.3 0.0
21/09:30pm 9.2 7.0 7.7 90 0.7 N 9 11 5 6 1020.5 1020.5 0.0
21/09:00pm 9.4 7.2 7.9 90 0.7 N 9 11 5 6 1020.4 1020.4 0.0
21/08:30pm 10.1 8.1 8.5 90 0.8 N 9 11 5 6 1020.3 1020.3 0.0
21/08:00pm 10.6 9.1 9.2 91 0.7 NNW 7 9 4 5 1020.2 1020.2 0.0
21/07:30pm 11.5 9.9 8.7 83 1.4 NNW 7 9 4 5 1020.3 1020.3 0.0
21/07:00pm 11.9 10.3 8.9 82 1.5 NNW 7 9 4 5 1020.0 1020.0 0.0
21/06:30pm 12.6 11.0 8.1 74 2.2 W 6 9 3 5 1019.7 1019.7 0.0
21/06:00pm 13.3 11.5 7.8 69 2.7 SW 7 9 4 5 1019.7 1019.7 0.0
21/05:30pm 13.9 11.6 7.6 66 3.1 WSW 9 13 5 7 1019.5 1019.5 0.0
21/05:00pm 15.0 11.8 7.0 59 3.9 SW 13 19 7 10 1019.4 1019.4 0.0
21/04:30pm 15.4 12.2 6.8 56 4.2 WSW 13 20 7 11 1019.2 1019.2 0.0
21/04:00pm 16.1 12.9 7.0 54 4.5 WSW 13 20 7 11 1019.0 1019.0 0.0
21/03:30pm 15.7 12.0 6.4 54 4.5 WSW 15 20 8 11 1018.9 1018.9 0.0
21/03:00pm 16.1 12.4 6.5 53 4.7 WSW 15 22 8 12 1019.0 1019.0 0.0
21/02:30pm 16.5 12.9 6.7 52 4.8 WSW 15 24 8 13 1019.1 1019.1 0.0
21/02:00pm 15.8 12.6 6.8 55 4.4 WSW 13 24 7 13 1019.3 1019.3 0.0
21/01:30pm 15.6 11.6 6.6 55 4.4 WSW 17 22 9 12 1019.5 1019.5 0.0
21/01:00pm 17.3 12.5 5.7 46 5.6 WNW 20 30 11 16 1019.7 1019.7 0.0
21/12:30pm 15.7 10.8 5.1 49 5.0 WNW 20 32 11 17 1020.3 1020.3 0.0
21/12:00pm 15.5 10.1 4.6 48 5.1 WNW 22 30 12 16 1020.8 1020.8 0.0
21/11:30am 15.9 10.6 5.1 48 5.1 NW 22 33 12 18 1021.2 1021.2 0.0
21/11:00am 15.0 9.4 5.2 52 4.6 WNW 24 37 13 20 1021.6 1021.6 0.0
21/10:30am 15.6 10.0 5.2 50 4.9 NW 24 32 13 17 1021.8 1021.8 0.0
21/10:00am 14.9 9.0 5.6 53 4.4 NW 26 33 14 18 1021.9 1021.9 0.0
21/09:30am 14.0 9.4 6.5 60 3.6 NW 20 28 11 15 1021.9 1021.9 0.0
21/09:00am 13.4 8.8 6.5 63 3.3 NW 20 28 11 15 1022.0 1022.0 0.6
21/08:30am 12.3 7.3 6.4 67 2.8 NW 22 30 12 16 1022.1 1022.1 0.6
21/08:00am 11.7 6.7 6.6 71 2.4 NW 22 32 12 17 1022.1 1022.1 0.6
21/07:30am 10.7 6.7 6.7 76 1.9 NW 17 24 9 13 1021.9 1021.9 0.6
21/07:00am 10.6 6.6 6.8 77 1.8 NW 17 22 9 12 1021.6 1021.6 0.6
21/06:30am 10.3 6.7 6.9 79 1.6 NW 15 19 8 10 1021.4 1021.4 0.6
21/06:00am 10.4 6.9 7.0 79 1.6 NW 15 19 8 10 1021.4 1021.4 0.6
21/05:30am 10.3 6.8 7.1 80 1.5 NW 15 19 8 10 1021.3 1021.3 0.6
21/05:00am 10.1 6.2 7.1 81 1.4 NW 17 24 9 13 1021.1 1021.1 0.6
21/04:30am 10.0 5.7 6.8 80 1.5 NW 19 24 10 13 1021.0 1021.0 0.6
21/04:00am 9.4 5.8 6.8 84 1.2 NW 15 19 8 10 1021.1 1021.1 0.6
21/03:30am 9.1 5.5 6.7 85 1.1 NW 15 20 8 11 1021.1 1021.1 0.6
21/03:00am 9.5 6.4 7.2 85 1.1 NW 13 20 7 11 1021.1 1021.1 0.6
21/02:30am 9.9 6.4 7.4 84 1.2 WNW 15 20 8 11 1021.1 1021.1 0.6
21/02:00am 10.4 7.2 8.3 87 1.0 NW 15 20 8 11 1021.0 1021.0 0.6
21/01:30am 10.9 9.0 9.1 89 0.9 NW 9 15 5 8 1020.9 1020.9 0.6
21/01:00am 11.9 9.7 9.3 84 1.3 WNW 11 13 6 7 1021.1 1021.1 0.6
21/12:30am 11.7 9.1 9.3 85 1.2 WNW 13 17 7 9 1021.2 1021.2 0.6
21/12:00am 11.0 8.8 9.2 89 0.9 NW 11 19 6 10 1021.3 1021.3 0.6
 
Date/Time
WST
Temp
°C
App
Temp
°C
Dew
Point
°C
Rel
Hum
%
Delta-T
°C
Wind Press
QNH
hPa
Press
MSL
hPa
Rain since
9am
mm
Dir  Spd
km/h
Gust
km/h
Spd
kts
Gust
kts
20/11:30pm 11.0 8.5 9.6 91 0.7 NW 13 17 7 9 1021.2 1021.2 0.6
20/11:00pm 12.1 10.4 9.9 86 1.1 WNW 9 15 5 8 1021.4 1021.4 0.6
20/10:30pm 12.8 10.9 10.5 86 1.2 NW 11 19 6 10 1021.5 1021.5 0.6
20/10:00pm 12.8 11.7 10.7 87 1.1 WNW 7 11 4 6 1021.6 1021.6 0.6
20/09:30pm 13.0 12.0 10.9 87 1.1 WNW 7 9 4 5 1021.7 1021.7 0.6
20/09:00pm 12.8 11.8 11.1 89 0.9 WNW 7 9 4 5 1021.5 1021.5 0.6
20/08:30pm 13.3 11.9 10.8 85 1.3 SSW 9 15 5 8 1021.7 1021.7 0.6
20/08:00pm 13.2 10.9 10.5 84 1.4 SSW 13 19 7 10 1021.7 1021.7 0.6
20/07:30pm 12.9 10.8 11.0 88 1.0 SSW 13 19 7 10 1021.6 1021.6 0.6
20/07:00pm 12.9 9.9 10.6 86 1.2 SSW 17 30 9 16 1021.4 1021.4 0.6
20/06:30pm 13.6 11.5 9.7 77 2.0 SSW 11 17 6 9 1021.1 1021.1 0.6
20/06:00pm 13.5 11.2 8.9 74 2.3 SSW 11 17 6 9 1020.9 1020.9 0.6
20/05:30pm 13.3 11.0 8.9 74 2.2 SSW 11 19 6 10 1020.8 1020.8 0.6
20/05:00pm 14.0 11.3 9.1 72 2.5 SSW 13 19 7 10 1020.7 1020.7 0.6
20/04:30pm 14.1 10.6 8.7 70 2.7 SSW 17 32 9 17 1020.4 1020.4 0.6
20/04:00pm 14.7 11.1 8.5 66 3.1 SSW 17 30 9 16 1020.3 1020.3 0.6
20/03:30pm 15.0 11.1 9.3 68 2.9 SSW 20 33 11 18 1020.1 1020.1 0.6
20/03:00pm 14.6 10.8 8.9 68 2.9 SSW 19 39 10 21 1019.9 1019.9 0.6
20/02:30pm 15.4 10.0 8.0 61 3.7 SSW 26 37 14 20 1019.7 1019.7 0.6
20/02:00pm 15.1 10.3 9.0 67 3.1 SSW 24 43 13 23 1019.5 1019.5 0.6
20/01:30pm 15.4 10.4 9.6 68 3.0 SSW 26 43 14 23 1019.4 1019.4 0.6
20/01:00pm 15.0 9.7 9.8 71 2.7 SSW 28 41 15 22 1019.2 1019.2 0.6
20/12:42pm 15.5 9.6 7.7 59 3.9 SSW 28 48 15 26 1019.0 1019.0 0.6
20/12:30pm 14.9 9.3 8.6 66 3.2 SSW 28 44 15 24 1019.2 1019.2 0.6
20/12:00pm 13.5 8.9 11.0 85 1.3 S 26 41 14 22 1019.3 1019.3 0.6
20/11:30am 14.3 9.0 9.8 74 2.3 SSW 28 48 15 26 1019.3 1019.3 0.6
20/11:01am 15.3 10.0 9.7 69 2.9 SSW 28 46 15 25 1018.9 1018.9 0.6
20/11:00am 15.3 10.4 9.9 70 2.8 SSW 26 41 14 22 1019.1 1019.1 0.6
20/10:35am 14.8 9.5 9.8 72 2.6 SSW 28 52 15 28 1018.6 1018.6 0.6
20/10:30am 14.1 9.5 10.9 81 1.7 S 26 39 14 21 1018.6 1018.6 0.6
20/10:00am 13.4 7.8 11.5 88 1.0 SSW 32 50 17 27 1018.0 1018.0 0.6
20/09:52am 13.5 8.7 11.6 88 1.0 SSW 28 43 15 23 1017.9 1017.9 0.4
20/09:42am 13.2 8.4 11.7 91 0.8 SSW 28 46 15 25 1017.7 1017.7 0.4
20/09:31am 13.1 8.2 11.2 88 1.0 SSW 28 44 15 24 1017.7 1017.7 0.2
20/09:30am 13.1 8.2 11.2 88 1.0 SSW 28 44 15 24 1017.6 1017.6 0.2
20/09:28am 13.5 8.6 11.4 87 1.1 SSW 28 44 15 24 1017.5 1017.5 0.2
20/09:00am 13.2 8.0 11.5 89 0.9 SSW 30 44 16 24 1017.1 1017.1 5.6
20/08:37am 14.0 8.7 9.9 76 2.1 SSW 28 46 15 25 1016.5 1016.5 5.6

Other Formats:

Comma delimited format used in spreadsheet applications
http://www.bom.gov.au/fwo/IDW60801/IDW60801.94638.axf

JavaScript Object Notation format (JSON) in row-major order
http://www.bom.gov.au/fwo/IDW60801/IDW60801.94638.json